createdAt,value
2023-05-08T00:02:11.985Z,13.35
2023-05-08T00:06:13.473Z,12.13
2023-05-08T00:10:15.265Z,15.38
2023-05-08T00:14:16.988Z,9.88
2023-05-08T00:18:19.845Z,12.88
2023-05-08T00:22:21.330Z,14.35
2023-05-08T00:26:23.067Z,10.13
2023-05-08T00:30:24.600Z,14.02
2023-05-08T00:34:27.548Z,12.88
2023-05-08T00:38:30.626Z,15.10
2023-05-08T00:42:32.089Z,14.82
2023-05-08T00:46:33.622Z,18.50
2023-05-08T00:50:36.566Z,16.73
2023-05-08T00:54:38.483Z,18.13
2023-05-08T00:58:40.904Z,14.75
2023-05-08T01:02:43.238Z,14.57
2023-05-08T01:06:46.179Z,13.88
2023-05-08T01:10:57.918Z,14.38
2023-05-08T01:15:08.794Z,13.15
2023-05-08T01:19:39.938Z,15.20
2023-05-08T01:23:59.221Z,18.27
2023-05-08T01:28:18.842Z,24.55
2023-05-08T01:32:24.934Z,16.75
2023-05-08T01:36:36.825Z,20.25
2023-05-08T01:40:48.810Z,17.27
2023-05-08T01:44:54.563Z,16.55
2023-05-08T01:49:03.597Z,19.45
2023-05-08T01:53:09.827Z,16.75
2023-05-08T02:01:16.599Z,19.77
2023-05-08T02:05:21.498Z,18.60
2023-05-08T02:09:24.926Z,15.45
2023-05-08T02:13:28.492Z,23.85
2023-05-08T02:17:31.909Z,14.70
2023-05-08T02:21:36.894Z,18.27
2023-05-08T02:25:39.470Z,15.57
2023-05-08T02:29:42.374Z,16.95
2023-05-08T02:33:45.652Z,16.67
2023-05-08T02:37:52.536Z,19.95
2023-05-08T02:41:54.109Z,19.23
2023-05-08T02:46:05.822Z,15.98
2023-05-08T02:50:14.107Z,14.05
2023-05-08T02:54:23.836Z,15.27
2023-05-08T02:58:34.567Z,14.00
2023-05-08T03:02:41.342Z,20.05
2023-05-08T03:06:46.414Z,29.27
2023-05-08T03:10:52.317Z,18.17
2023-05-08T03:15:00.258Z,20.75
2023-05-08T03:19:06.716Z,20.00
2023-05-08T03:23:10.413Z,20.65
2023-05-08T03:27:15.880Z,23.23
2023-05-08T03:31:18.128Z,17.33
2023-05-08T03:35:21.174Z,24.05
2023-05-08T03:39:24.384Z,18.33
2023-05-08T03:43:28.761Z,21.02
2023-05-08T03:47:31.973Z,14.23
2023-05-08T03:51:33.765Z,16.65
2023-05-08T03:55:35.994Z,16.65
2023-05-08T03:59:44.272Z,23.83
2023-05-08T04:03:56.290Z,16.70
2023-05-08T04:08:04.273Z,22.80
2023-05-08T04:12:12.965Z,16.52
2023-05-08T04:16:21.534Z,21.90
2023-05-08T04:20:27.021Z,16.67
2023-05-08T04:24:30.355Z,13.98
2023-05-08T04:28:32.301Z,17.83
2023-05-08T04:32:36.789Z,22.90
2023-05-08T04:36:39.302Z,18.42
2023-05-08T04:40:41.544Z,16.52
2023-05-08T04:44:43.014Z,18.05
2023-05-08T04:48:45.871Z,18.90
2023-05-08T04:52:47.327Z,16.30
2023-05-08T04:56:48.854Z,13.73
2023-05-08T05:00:50.360Z,14.60
2023-05-08T05:04:53.186Z,15.02
2023-05-08T05:08:54.668Z,15.02
2023-05-08T05:12:56.261Z,12.75
2023-05-08T05:16:57.771Z,11.30
2023-05-08T05:21:00.642Z,13.57
2023-05-08T05:25:02.170Z,10.73
2023-05-08T05:29:03.706Z,13.38
2023-05-08T05:33:05.311Z,15.75
2023-05-08T05:37:08.179Z,12.65
2023-05-08T05:41:09.677Z,16.85
2023-05-08T05:45:11.538Z,11.57
2023-05-08T05:49:13.250Z,8.88
2023-05-08T05:53:16.074Z,11.35
2023-05-08T05:57:17.529Z,13.73
2023-05-08T06:01:19.006Z,8.82
2023-05-08T06:05:20.860Z,10.02
2023-05-08T06:09:24.074Z,19.25
2023-05-08T06:13:26.045Z,13.20
2023-05-08T06:17:28.097Z,14.13
2023-05-08T06:21:29.988Z,11.82
2023-05-08T06:25:33.304Z,9.45
2023-05-08T06:29:35.073Z,11.52
2023-05-08T06:33:36.874Z,13.10
2023-05-08T06:37:38.715Z,13.25
2023-05-08T06:41:41.975Z,10.20
2023-05-08T06:45:44.212Z,9.23
2023-05-08T06:49:46.036Z,11.82
2023-05-08T06:53:47.882Z,8.27
2023-05-08T06:57:51.161Z,11.23
2023-05-08T07:01:53.150Z,10.25
2023-05-08T07:05:55.983Z,9.20
2023-05-08T07:09:57.858Z,7.35
2023-05-08T07:14:01.178Z,8.43
2023-05-08T07:18:03.076Z,11.75
2023-05-08T07:22:05.762Z,10.02
2023-05-08T07:26:07.597Z,15.65
2023-05-08T07:30:11.485Z,6.00
2023-05-08T07:34:13.317Z,6.53
2023-05-08T07:38:15.153Z,5.55
2023-05-08T07:42:17.055Z,10.60
2023-05-08T07:46:20.487Z,4.28
2023-05-08T07:50:23.160Z,5.30
2023-05-08T07:54:25.172Z,6.18
2023-05-08T07:58:27.015Z,6.18
2023-05-08T08:02:30.307Z,5.93
2023-05-08T08:06:32.190Z,6.05
2023-05-08T08:10:34.058Z,4.13
2023-05-08T08:14:35.978Z,5.68
2023-05-08T08:18:39.145Z,2.90
2023-05-08T08:22:41.118Z,5.50
2023-05-08T08:26:42.950Z,5.28
2023-05-08T08:30:44.817Z,6.40
2023-05-08T08:34:48.081Z,6.05
2023-05-08T08:38:49.955Z,3.67
2023-05-08T08:42:51.660Z,7.57
2023-05-08T08:46:54.025Z,4.60
2023-05-08T08:51:02.284Z,7.13
2023-05-08T08:55:06.791Z,6.45
2023-05-08T08:59:09.061Z,3.17
2023-05-08T09:03:10.916Z,3.95
2023-05-08T09:07:13.913Z,3.22
2023-05-08T09:11:15.541Z,4.78
2023-05-08T09:15:17.392Z,6.85
2023-05-08T09:19:21.476Z,9.90
2023-05-08T09:23:26.258Z,7.20
2023-05-08T09:27:29.413Z,7.28
2023-05-08T09:31:34.969Z,8.65
2023-05-08T09:35:36.610Z,12.23
2023-05-08T09:39:39.441Z,7.80
2023-05-08T09:43:42.159Z,9.38
2023-05-08T09:47:48.218Z,11.23
2023-05-08T09:51:52.998Z,8.75
2023-05-08T09:55:55.944Z,10.70
2023-05-08T10:00:01.477Z,9.95
2023-05-08T10:04:04.285Z,9.02
2023-05-08T10:08:19.106Z,11.90
2023-05-08T10:12:22.408Z,7.00
2023-05-08T10:16:25.803Z,6.13
2023-05-08T10:20:30.312Z,6.88
2023-05-08T10:24:33.312Z,8.25
2023-05-08T10:28:42.982Z,5.45
2023-05-08T10:32:45.519Z,4.70
2023-05-08T10:36:47.398Z,7.63
2023-05-08T10:40:50.425Z,6.63
2023-05-08T10:44:53.931Z,4.75
2023-05-08T10:49:04.567Z,5.13
2023-05-08T10:53:10.590Z,8.40
2023-05-08T10:57:12.398Z,6.05
2023-05-08T11:01:16.733Z,4.72
2023-05-08T11:05:18.917Z,4.22
2023-05-08T11:09:22.106Z,5.35
2023-05-08T11:13:28.289Z,5.05
2023-05-08T11:17:31.381Z,4.63
2023-05-08T11:21:32.909Z,3.50
2023-05-08T11:25:44.398Z,4.10
2023-05-08T11:30:18.129Z,6.85
2023-05-08T11:34:46.024Z,5.82
2023-05-08T11:39:06.388Z,6.05
2023-05-08T11:43:20.162Z,4.78
2023-05-08T11:47:22.311Z,3.58
2023-05-08T11:51:25.352Z,6.45
2023-05-08T11:55:26.886Z,4.05
2023-05-08T11:59:28.394Z,7.40
2023-05-08T12:03:30.049Z,7.95
2023-05-08T12:07:33.123Z,2.70
2023-05-08T12:11:34.651Z,5.03
2023-05-08T12:15:36.149Z,4.47
2023-05-08T12:19:37.655Z,3.80
2023-05-08T12:23:40.526Z,4.18
2023-05-08T12:27:43.548Z,5.30
2023-05-08T12:31:45.231Z,4.25
2023-05-08T12:35:46.911Z,7.57
2023-05-08T12:39:49.765Z,7.60
2023-05-08T12:43:51.264Z,5.90
2023-05-08T12:47:53.924Z,6.90
2023-05-08T12:52:03.748Z,7.20
2023-05-08T12:56:07.212Z,5.28
2023-05-08T13:00:09.844Z,5.97
2023-05-08T13:04:11.609Z,4.93
2023-05-08T13:08:13.198Z,5.85
2023-05-08T13:12:16.118Z,5.60
2023-05-08T13:16:17.679Z,5.20
2023-05-08T13:20:19.189Z,6.57
2023-05-08T13:24:20.736Z,5.22
2023-05-08T13:28:23.603Z,4.07
2023-05-08T13:32:25.148Z,3.92
2023-05-08T13:36:26.741Z,4.40
2023-05-08T13:40:28.478Z,4.40
2023-05-08T13:44:31.388Z,5.93
2023-05-08T13:48:32.932Z,4.40
2023-05-08T13:52:34.783Z,7.05
2023-05-08T13:56:36.552Z,6.28
2023-05-08T14:00:39.485Z,8.57
2023-05-08T14:04:41.295Z,4.53
2023-05-08T14:08:46.520Z,5.15
2023-05-08T14:12:49.392Z,7.95
2023-05-08T14:16:52.275Z,4.97
2023-05-08T14:20:57.128Z,9.15
2023-05-08T14:24:59.314Z,7.15
2023-05-08T14:29:00.811Z,5.00
2023-05-08T14:33:03.790Z,4.65
2023-05-08T14:37:05.382Z,3.72
2023-05-08T14:41:06.904Z,4.55
2023-05-08T14:45:09.462Z,6.20
2023-05-08T14:49:13.645Z,5.18
2023-05-08T14:53:16.895Z,4.47
2023-05-08T14:57:18.563Z,5.65
2023-05-08T15:01:20.118Z,5.53
2023-05-08T15:05:23.352Z,7.72
2023-05-08T15:09:24.976Z,7.68
2023-05-08T15:13:26.598Z,5.55
2023-05-08T15:17:28.282Z,4.85
2023-05-08T15:21:31.204Z,8.40
2023-05-08T15:25:32.865Z,4.68
2023-05-08T15:29:34.377Z,8.05
2023-05-08T15:33:35.895Z,6.03
2023-05-08T15:37:38.756Z,6.03
2023-05-08T15:41:40.357Z,4.63
2023-05-08T15:45:42.012Z,4.30
2023-05-08T15:49:43.529Z,5.03
2023-05-08T15:53:46.369Z,4.07
2023-05-08T15:57:47.879Z,13.95
2023-05-08T16:01:50.819Z,5.45
2023-05-08T16:05:53.520Z,6.18
2023-05-08T16:09:56.425Z,5.28
2023-05-08T16:13:58.097Z,4.63
2023-05-08T16:17:59.612Z,3.78
2023-05-08T16:22:01.128Z,4.65
2023-05-08T16:26:03.980Z,3.50
2023-05-08T16:30:07.030Z,4.03
2023-05-08T16:34:08.600Z,8.40
2023-05-08T16:38:10.138Z,4.88
2023-05-08T16:42:12.982Z,8.63
2023-05-08T16:46:14.563Z,5.28
2023-05-08T16:50:16.108Z,6.47
2023-05-08T16:54:17.631Z,10.18
2023-05-08T16:58:20.573Z,7.72
2023-05-08T17:02:22.262Z,7.70
2023-05-08T17:06:23.871Z,7.55
2023-05-08T17:10:25.359Z,9.25
2023-05-08T17:14:28.220Z,8.88
2023-05-08T17:18:29.726Z,7.32
2023-05-08T17:22:31.213Z,8.02
2023-05-08T17:26:32.762Z,8.90
2023-05-08T17:30:35.591Z,5.25
2023-05-08T17:34:37.143Z,10.02
2023-05-08T17:38:38.678Z,6.38
2023-05-08T17:42:40.193Z,5.43
2023-05-08T17:46:43.124Z,5.57
2023-05-08T17:50:44.621Z,5.32
2023-05-08T17:54:46.119Z,8.43
2023-05-08T17:58:47.588Z,7.78
2023-05-08T18:02:50.588Z,7.78
2023-05-08T18:06:52.193Z,6.78
2023-05-08T18:10:53.685Z,10.00
2023-05-08T18:14:55.203Z,8.90
2023-05-08T18:18:58.037Z,10.07
2023-05-08T18:22:59.526Z,8.27
2023-05-08T18:27:01.005Z,12.65
2023-05-08T18:31:02.581Z,9.27
2023-05-08T18:35:06.462Z,10.60
2023-05-08T18:39:08.014Z,12.30
2023-05-08T18:43:09.549Z,14.23
2023-05-08T18:47:11.038Z,11.07
2023-05-08T18:51:13.885Z,15.40
2023-05-08T18:55:15.517Z,14.65
2023-05-08T18:59:17.068Z,10.98
2023-05-08T19:03:18.786Z,13.50
2023-05-08T19:07:21.733Z,12.60
2023-05-08T19:11:23.269Z,12.82
2023-05-08T19:15:24.752Z,11.30
2023-05-08T19:19:26.261Z,9.25
2023-05-08T19:23:29.165Z,8.95
2023-05-08T19:27:30.712Z,11.75
2023-05-08T19:31:32.243Z,10.68
2023-05-08T19:35:33.807Z,14.27
2023-05-08T19:39:36.643Z,16.17
2023-05-08T19:43:38.152Z,11.10
2023-05-08T19:47:39.654Z,11.45
2023-05-08T19:51:41.181Z,13.55
2023-05-08T19:55:44.082Z,14.10
2023-05-08T19:59:45.627Z,14.60
2023-05-08T20:03:47.229Z,12.30
2023-05-08T20:07:48.774Z,16.73
2023-05-08T20:11:51.685Z,10.85
2023-05-08T20:15:53.220Z,11.45
2023-05-08T20:19:54.831Z,15.75
2023-05-08T20:23:56.466Z,13.73
2023-05-08T20:27:59.324Z,11.25
2023-05-08T20:32:00.929Z,13.93
2023-05-08T20:36:02.466Z,10.95
2023-05-08T20:40:04.630Z,25.38
2023-05-08T20:44:07.474Z,14.65
2023-05-08T20:48:09.033Z,14.07
2023-05-08T20:52:10.582Z,12.90
2023-05-08T20:56:12.491Z,15.23
2023-05-08T21:00:16.097Z,14.80
2023-05-08T21:04:17.682Z,14.40
2023-05-08T21:08:21.413Z,11.10
2023-05-08T21:12:22.965Z,18.92
2023-05-08T21:16:26.859Z,11.57
2023-05-08T21:20:28.601Z,18.30
2023-05-08T21:24:30.109Z,17.90
2023-05-08T21:28:31.590Z,13.20
2023-05-08T21:32:34.437Z,10.05
2023-05-08T21:36:35.927Z,9.52
2023-05-08T21:40:37.490Z,12.90
2023-05-08T21:44:38.974Z,11.65
2023-05-08T21:48:41.821Z,13.30
2023-05-08T21:52:43.323Z,10.13
2023-05-08T21:56:44.798Z,15.57
2023-05-08T22:00:46.375Z,14.32
2023-05-08T22:04:49.191Z,15.80
2023-05-08T22:08:50.674Z,14.30
2023-05-08T22:12:52.310Z,12.55
2023-05-08T22:16:53.821Z,8.50
2023-05-08T22:20:56.646Z,10.95
2023-05-08T22:24:58.192Z,9.43
2023-05-08T22:28:59.671Z,8.23
2023-05-08T22:33:01.227Z,11.48
2023-05-08T22:37:04.134Z,16.15
2023-05-08T22:41:05.672Z,10.93
2023-05-08T22:45:08.497Z,8.93
2023-05-08T22:49:10.009Z,8.90
2023-05-08T22:53:12.857Z,13.57
2023-05-08T22:57:14.463Z,8.77
2023-05-08T23:01:16.060Z,9.38
2023-05-08T23:05:17.538Z,7.13
2023-05-08T23:09:20.367Z,9.05
2023-05-08T23:13:21.950Z,8.55
2023-05-08T23:17:23.592Z,8.68
2023-05-08T23:21:25.074Z,8.38
2023-05-08T23:25:28.140Z,8.10
2023-05-08T23:29:29.637Z,7.38
2023-05-08T23:33:31.162Z,8.70
2023-05-08T23:37:32.644Z,10.63
2023-05-08T23:41:35.478Z,7.72
2023-05-08T23:45:36.997Z,7.53
2023-05-08T23:49:38.470Z,9.32
2023-05-08T23:53:39.959Z,7.82
2023-05-08T23:57:43.823Z,9.70
